Time;durP1;ratioP1;P1;durP2;ratioP2;P2;SDS_P1;SDS_P2;PMS_P1;PMS_P2;Temp;Humidity;BMP_temperature;BMP_pressure;BME280_temperature;BME280_humidity;BME280_pressure;Samples;Min_cycle;Max_cycle;Signal;HPM_P1;HPM_P2
2022/11/13 00:00:31;;;;;;;;;;;9.10;94.40;;;;;;5066556;28;19912;-75
2022/11/13 00:02:57;;;;;;;;;;;9.20;94.50;;;;;;5066742;28;19935;-74
2022/11/13 00:05:23;;;;;;;;;;;9.20;94.70;;;;;;5065855;28;19913;-74
2022/11/13 00:07:48;;;;;;;;;;;9.20;94.50;;;;;;5066627;28;20603;-75
2022/11/13 00:10:14;;;;;;;;;;;9.10;94.40;;;;;;5065417;28;19999;-74
2022/11/13 00:12:39;;;;;;;;;;;9.10;94.40;;;;;;5079210;28;19927;-74
2022/11/13 00:15:05;;;;;;;;;;;9.10;94.40;;;;;;5068570;28;19912;-74
2022/11/13 00:17:31;;;;;;;;;;;9.10;94.40;;;;;;5066436;28;19999;-74
2022/11/13 00:19:56;;;;;;;;;;;9.10;94.40;;;;;;5066074;28;19920;-74
2022/11/13 00:22:22;;;;;;;;;;;9.10;94.40;;;;;;5065635;28;20423;-74
2022/11/13 00:24:47;;;;;;;;;;;9.10;94.40;;;;;;5066219;28;19913;-74
2022/11/13 00:27:12;;;;;;;;;;;9.10;94.40;;;;;;5064903;28;19912;-74
2022/11/13 00:29:38;;;;;;;;;;;9.10;94.40;;;;;;5077197;28;19916;-74
2022/11/13 00:32:04;;;;;;;;;;;9.10;94.40;;;;;;5046026;28;20385;-74
2022/11/13 00:34:29;;;;;;;;;;;9.10;94.40;;;;;;5045536;28;19908;-74
2022/11/13 00:36:55;;;;;;;;;;;9.10;94.40;;;;;;5045967;28;19917;-74
2022/11/13 00:39:20;;;;;;;;;;;9.10;94.40;;;;;;5045729;28;19947;-75
2022/11/13 00:41:46;;;;;;;;;;;9.10;94.40;;;;;;5045968;28;19916;-74
2022/11/13 00:44:11;;;;;;;;;;;9.10;94.40;;;;;;5077074;28;20024;-75
2022/11/13 00:46:37;;;;;;;;;;;9.10;94.40;;;;;;5067054;28;19955;-74
2022/11/13 00:49:02;;;;;;;;;;;9.10;94.40;;;;;;5065553;28;19913;-74
2022/11/13 00:51:28;;;;;;;;;;;9.00;94.40;;;;;;5065481;28;19912;-74
2022/11/13 00:53:53;;;;;;;;;;;9.00;94.30;;;;;;5065675;28;19912;-74
2022/11/13 00:56:19;;;;;;;;;;;9.00;94.70;;;;;;5065434;28;20440;-75
2022/11/13 00:58:44;;;;;;;;;;;9.00;94.30;;;;;;5065374;28;19918;-74
2022/11/13 01:01:11;;;;;;;;;;;9.00;94.40;;;;;;5066206;28;20411;-74
2022/11/13 01:03:37;;;;;;;;;;;9.00;94.30;;;;;;5085678;28;19955;-74
2022/11/13 01:06:13;;;;;;;;;;;9.00;94.30;;;;;;5084314;28;20395;-75
2022/11/13 01:08:39;;;;;;;;;;;9.00;94.30;;;;;;5079448;28;19913;-75
2022/11/13 01:11:12;;;;;;;;;;;9.00;94.30;;;;;;5045370;28;19919;-74
2022/11/13 01:13:38;;;;;;;;;;;9.00;94.30;;;;;;5068057;28;19970;-74
2022/11/13 01:16:05;;;;;;;;;;;9.00;94.40;;;;;;5084570;28;19947;-74
2022/11/13 01:18:30;;;;;;;;;;;9.00;94.30;;;;;;5084679;28;19912;-75
2022/11/13 01:21:06;;;;;;;;;;;9.00;94.30;;;;;;5070655;28;20459;-75
2022/11/13 01:23:31;;;;;;;;;;;9.00;94.30;;;;;;5065065;28;19916;-75
2022/11/13 01:26:07;;;;;;;;;;;9.00;94.30;;;;;;5064954;28;19938;-74
2022/11/13 01:28:33;;;;;;;;;;;8.90;94.30;;;;;;5065472;28;20472;-75
2022/11/13 01:30:59;;;;;;;;;;;9.00;94.30;;;;;;5063636;28;20003;-74
2022/11/13 01:33:24;;;;;;;;;;;8.90;94.30;;;;;;5064558;28;19913;-75
2022/11/13 01:35:50;;;;;;;;;;;8.90;94.30;;;;;;5065349;28;19943;-74
2022/11/13 01:38:15;;;;;;;;;;;8.90;94.30;;;;;;5064769;28;20389;-74
2022/11/13 01:40:45;;;;;;;;;;;8.90;94.30;;;;;;5064379;28;20400;-74
2022/11/13 01:43:17;;;;;;;;;;;8.90;94.30;;;;;;5072604;28;19955;-74
2022/11/13 01:45:49;;;;;;;;;;;8.90;94.30;;;;;;5084342;28;20227;-74
2022/11/13 01:48:14;;;;;;;;;;;8.90;94.30;;;;;;5084413;28;19922;-75
2022/11/13 01:50:40;;;;;;;;;;;8.90;94.30;;;;;;5075856;28;19990;-75
2022/11/13 01:53:06;;;;;;;;;;;8.90;94.30;;;;;;5063936;28;19970;-74
2022/11/13 01:55:31;;;;;;;;;;;8.90;94.30;;;;;;5064285;28;19922;-74
2022/11/13 01:57:57;;;;;;;;;;;8.90;94.30;;;;;;5064054;28;19921;-74
2022/11/13 02:00:22;;;;;;;;;;;8.80;94.30;;;;;;5065579;28;20007;-74
2022/11/13 02:02:48;;;;;;;;;;;8.90;94.30;;;;;;5084859;28;19912;-74
2022/11/13 02:05:14;;;;;;;;;;;8.90;94.30;;;;;;5084360;28;19912;-74
2022/11/13 02:07:39;;;;;;;;;;;8.80;94.30;;;;;;5057854;28;19920;-75
2022/11/13 02:10:05;;;;;;;;;;;8.80;94.30;;;;;;5059279;28;19912;-74
2022/11/13 02:12:33;;;;;;;;;;;8.80;94.30;;;;;;5066464;28;20665;-74
2022/11/13 02:14:59;;;;;;;;;;;8.80;94.30;;;;;;5084732;28;20019;-74
2022/11/13 02:17:33;;;;;;;;;;;8.80;94.30;;;;;;5067020;28;20354;-74
2022/11/13 02:20:00;;;;;;;;;;;8.80;94.30;;;;;;5064031;28;19912;-74
2022/11/13 02:22:44;;;;;;;;;;;8.80;94.30;;;;;;5064615;28;20317;-74
2022/11/13 02:25:10;;;;;;;;;;;8.80;94.20;;;;;;5065143;28;20358;-74
2022/11/13 02:27:41;;;;;;;;;;;8.80;94.20;;;;;;5064607;28;19917;-74
2022/11/13 02:30:13;;;;;;;;;;;8.80;94.20;;;;;;5064492;28;19920;-74
2022/11/13 02:32:43;;;;;;;;;;;8.70;94.20;;;;;;5056964;28;19966;-74
2022/11/13 02:35:10;;;;;;;;;;;8.80;94.30;;;;;;5045180;28;19913;-74
2022/11/13 02:37:35;;;;;;;;;;;8.70;94.20;;;;;;5044853;28;19913;-74
2022/11/13 02:40:01;;;;;;;;;;;8.70;94.20;;;;;;5058888;28;19919;-74
2022/11/13 02:42:26;;;;;;;;;;;8.70;94.20;;;;;;5067556;28;20269;-74
2022/11/13 02:44:52;;;;;;;;;;;8.70;94.20;;;;;;5085261;28;19943;-74
2022/11/13 02:47:17;;;;;;;;;;;8.70;94.20;;;;;;5085448;28;19911;-74
2022/11/13 02:49:43;;;;;;;;;;;8.70;94.20;;;;;;5069818;28;19969;-74
2022/11/13 02:52:08;;;;;;;;;;;8.70;94.20;;;;;;5065442;28;19965;-74
2022/11/13 02:54:33;;;;;;;;;;;8.70;94.20;;;;;;5064547;28;20276;-74
2022/11/13 02:56:59;;;;;;;;;;;8.70;94.20;;;;;;5065886;28;19966;-74
2022/11/13 02:59:24;;;;;;;;;;;8.70;94.20;;;;;;5069121;28;20594;-74
2022/11/13 03:01:50;;;;;;;;;;;8.70;94.20;;;;;;5068688;28;19943;-74
2022/11/13 03:04:15;;;;;;;;;;;8.70;94.20;;;;;;5068961;28;20440;-74
2022/11/13 03:06:41;;;;;;;;;;;8.70;94.20;;;;;;5067683;28;19951;-74
2022/11/13 03:09:06;;;;;;;;;;;8.70;94.20;;;;;;5068153;28;19955;-74
2022/11/13 03:11:32;;;;;;;;;;;8.70;94.20;;;;;;5067241;28;19920;-74
2022/11/13 03:13:57;;;;;;;;;;;8.70;94.20;;;;;;5078111;28;20015;-74
2022/11/13 03:16:23;;;;;;;;;;;8.70;94.20;;;;;;5068416;28;20266;-74
2022/11/13 03:18:48;;;;;;;;;;;8.60;94.10;;;;;;5062076;28;19978;-74
2022/11/13 03:21:14;;;;;;;;;;;8.60;94.40;;;;;;5066407;28;19912;-74
2022/11/13 03:23:41;;;;;;;;;;;8.60;94.20;;;;;;5067967;28;19919;-74
2022/11/13 03:26:08;;;;;;;;;;;8.60;94.20;;;;;;5067658;28;19913;-74
2022/11/13 03:28:34;;;;;;;;;;;8.60;94.20;;;;;;5067458;28;19956;-74
2022/11/13 03:30:59;;;;;;;;;;;8.60;94.20;;;;;;5068556;28;19916;-74
2022/11/13 03:33:25;;;;;;;;;;;8.60;94.20;;;;;;5067898;28;19920;-74
2022/11/13 03:35:50;;;;;;;;;;;8.60;94.20;;;;;;5067771;28;20009;-74
2022/11/13 03:38:16;;;;;;;;;;;8.60;94.20;;;;;;5066547;28;19912;-74
2022/11/13 03:40:42;;;;;;;;;;;8.60;94.20;;;;;;5067559;28;19940;-74
2022/11/13 03:43:07;;;;;;;;;;;8.50;94.20;;;;;;5074177;28;20562;-74
2022/11/13 03:45:33;;;;;;;;;;;8.50;94.10;;;;;;5087775;28;19912;-74
2022/11/13 03:47:58;;;;;;;;;;;8.50;94.10;;;;;;5073642;28;20626;-74
2022/11/13 03:50:24;;;;;;;;;;;8.50;94.10;;;;;;5066588;28;19920;-74
2022/11/13 03:52:49;;;;;;;;;;;8.50;94.10;;;;;;5067613;28;19915;-74
2022/11/13 03:55:15;;;;;;;;;;;8.50;94.10;;;;;;5067234;28;20304;-74
2022/11/13 03:57:40;;;;;;;;;;;8.50;94.10;;;;;;5067502;28;19913;-74
2022/11/13 04:00:06;;;;;;;;;;;8.50;94.10;;;;;;5066907;28;19917;-74
2022/11/13 04:02:31;;;;;;;;;;;8.50;94.10;;;;;;5066971;28;19912;-74
2022/11/13 04:04:57;;;;;;;;;;;8.40;94.10;;;;;;5087358;28;20410;-74
2022/11/13 04:07:22;;;;;;;;;;;8.40;94.10;;;;;;5087883;28;19912;-74
2022/11/13 04:09:48;;;;;;;;;;;8.40;94.10;;;;;;5060799;28;19915;-74
2022/11/13 04:12:13;;;;;;;;;;;8.40;94.00;;;;;;5047688;28;19933;-74
2022/11/13 04:14:39;;;;;;;;;;;8.40;94.00;;;;;;5069038;28;19913;-74
2022/11/13 04:17:04;;;;;;;;;;;8.40;94.30;;;;;;5066073;28;20494;-74
2022/11/13 04:19:30;;;;;;;;;;;8.40;94.10;;;;;;5068239;28;19908;-74
2022/11/13 04:21:55;;;;;;;;;;;8.40;94.10;;;;;;5087493;28;19912;-75
2022/11/13 04:24:20;;;;;;;;;;;8.40;94.00;;;;;;5087150;28;19911;-74
2022/11/13 04:26:46;;;;;;;;;;;8.30;94.00;;;;;;5087103;28;20369;-74
2022/11/13 04:29:11;;;;;;;;;;;8.40;94.00;;;;;;5087060;28;20007;-74
2022/11/13 04:31:37;;;;;;;;;;;8.30;94.00;;;;;;5049170;28;19913;-74
2022/11/13 04:34:02;;;;;;;;;;;8.30;94.00;;;;;;5045979;28;20711;-74
2022/11/13 04:36:28;;;;;;;;;;;8.30;94.00;;;;;;5052577;28;19974;-74
2022/11/13 04:38:53;;;;;;;;;;;8.30;94.00;;;;;;5078252;28;20030;-74
2022/11/13 04:44:03;;;;;;;;;;;8.30;94.00;;;;;;5070488;28;19924;-74
2022/11/13 04:46:28;;;;;;;;;;;8.30;93.90;;;;;;5066562;28;19912;-74
2022/11/13 04:48:54;;;;;;;;;;;8.30;94.00;;;;;;5066474;28;19912;-74
2022/11/13 04:51:19;;;;;;;;;;;8.30;94.00;;;;;;5065260;28;20349;-74
2022/11/13 04:53:45;;;;;;;;;;;8.30;94.00;;;;;;5067060;28;19913;-74
2022/11/13 04:56:10;;;;;;;;;;;8.20;93.90;;;;;;5066510;28;20618;-74
2022/11/13 04:58:36;;;;;;;;;;;8.20;93.90;;;;;;5066392;28;20034;-74
2022/11/13 05:01:03;;;;;;;;;;;8.20;93.90;;;;;;5066253;28;20681;-74
2022/11/13 05:03:28;;;;;;;;;;;8.20;93.90;;;;;;5066158;28;19912;-74
2022/11/13 05:06:00;;;;;;;;;;;8.20;93.90;;;;;;5065504;28;19912;-74
2022/11/13 05:08:25;;;;;;;;;;;8.20;93.90;;;;;;5065693;28;20590;-74
2022/11/13 05:10:51;;;;;;;;;;;8.20;93.90;;;;;;5066627;28;19912;-74
2022/11/13 05:13:16;;;;;;;;;;;8.20;93.90;;;;;;5074283;28;20061;-74
2022/11/13 05:15:42;;;;;;;;;;;8.20;93.90;;;;;;5086218;28;19927;-75
2022/11/13 05:18:07;;;;;;;;;;;8.20;93.90;;;;;;5086317;28;19912;-74
2022/11/13 05:20:33;;;;;;;;;;;8.20;93.80;;;;;;5085698;28;19912;-74
2022/11/13 05:22:58;;;;;;;;;;;8.20;93.90;;;;;;5085623;28;19916;-74
2022/11/13 05:25:24;;;;;;;;;;;8.20;93.80;;;;;;5085499;28;20008;-74
2022/11/13 05:27:49;;;;;;;;;;;8.10;93.80;;;;;;5083603;28;19916;-74
2022/11/13 05:30:15;;;;;;;;;;;8.10;93.80;;;;;;5070751;28;19948;-74
2022/11/13 05:32:40;;;;;;;;;;;8.20;93.80;;;;;;5045527;28;19912;-74
2022/11/13 05:35:06;;;;;;;;;;;8.10;93.70;;;;;;5045532;28;19921;-74
2022/11/13 05:37:31;;;;;;;;;;;8.10;93.80;;;;;;5045493;28;19927;-74
2022/11/13 05:39:57;;;;;;;;;;;8.10;93.80;;;;;;5044884;28;19912;-74
2022/11/13 05:42:22;;;;;;;;;;;8.10;93.80;;;;;;5046641;28;19989;-74
2022/11/13 05:44:48;;;;;;;;;;;8.10;93.80;;;;;;5085016;28;19912;-75
2022/11/13 05:47:13;;;;;;;;;;;8.10;93.70;;;;;;5078607;28;19969;-74
2022/11/13 05:49:39;;;;;;;;;;;8.10;93.70;;;;;;5062423;28;20667;-74
2022/11/13 05:52:04;;;;;;;;;;;8.10;93.70;;;;;;5064841;28;19916;-74
2022/11/13 05:54:30;;;;;;;;;;;8.10;93.70;;;;;;5065439;28;19977;-74
2022/11/13 05:56:55;;;;;;;;;;;8.10;93.70;;;;;;5065032;28;19920;-74
2022/11/13 05:59:21;;;;;;;;;;;8.10;93.70;;;;;;5066101;28;19912;-74
2022/11/13 06:01:46;;;;;;;;;;;8.10;93.70;;;;;;5054371;28;19925;-74
2022/11/13 06:04:12;;;;;;;;;;;8.10;93.70;;;;;;5065676;28;19913;-74
2022/11/13 06:06:37;;;;;;;;;;;8.10;93.70;;;;;;5065382;28;20385;-74
2022/11/13 06:09:04;;;;;;;;;;;8.10;93.60;;;;;;5065279;28;19919;-74
2022/11/13 06:11:30;;;;;;;;;;;8.10;93.60;;;;;;5064983;28;19927;-74
2022/11/13 06:13:56;;;;;;;;;;;8.10;93.50;;;;;;5077552;28;19912;-74
2022/11/13 06:16:26;;;;;;;;;;;8.10;93.60;;;;;;5078099;28;19955;-74
2022/11/13 06:18:58;;;;;;;;;;;8.20;93.60;;;;;;5065445;28;20326;-74
2022/11/13 06:21:24;;;;;;;;;;;8.10;93.60;;;;;;5063926;28;19947;-74
2022/11/13 06:23:50;;;;;;;;;;;8.10;93.60;;;;;;5064994;28;19924;-74
2022/11/13 06:26:17;;;;;;;;;;;8.10;93.90;;;;;;5064616;28;20297;-74
2022/11/13 06:28:42;;;;;;;;;;;8.10;93.60;;;;;;5064842;28;20004;-74
2022/11/13 06:31:12;;;;;;;;;;;8.10;93.60;;;;;;5049066;28;19912;-74
2022/11/13 06:33:39;;;;;;;;;;;8.10;93.60;;;;;;5064153;28;20086;-74
2022/11/13 06:36:05;;;;;;;;;;;8.10;93.60;;;;;;5069101;28;19924;-74
2022/11/13 06:38:31;;;;;;;;;;;8.10;93.60;;;;;;5069140;28;19916;-74
2022/11/13 06:40:57;;;;;;;;;;;8.10;93.60;;;;;;5067455;28;20427;-74
2022/11/13 06:43:22;;;;;;;;;;;8.00;93.50;;;;;;5077935;28;19916;-74
2022/11/13 06:45:48;;;;;;;;;;;8.00;93.80;;;;;;5089213;28;19912;-74
2022/11/13 06:48:13;;;;;;;;;;;8.00;93.60;;;;;;5088597;28;19918;-74
2022/11/13 06:50:39;;;;;;;;;;;8.00;93.60;;;;;;5073904;28;19951;-74
2022/11/13 06:53:04;;;;;;;;;;;8.00;93.60;;;;;;5068764;28;19973;-74
2022/11/13 06:55:29;;;;;;;;;;;8.00;93.60;;;;;;5068268;28;20586;-74
2022/11/13 06:57:55;;;;;;;;;;;8.00;93.60;;;;;;5068712;28;19917;-74
2022/11/13 07:00:20;;;;;;;;;;;8.00;93.50;;;;;;5068451;28;20361;-74
2022/11/13 07:02:49;;;;;;;;;;;8.00;93.50;;;;;;5068226;28;19923;-74
2022/11/13 07:05:14;;;;;;;;;;;8.00;93.50;;;;;;5068405;28;20387;-74
2022/11/13 07:07:40;;;;;;;;;;;8.00;93.50;;;;;;5086428;28;19912;-74
2022/11/13 07:10:06;;;;;;;;;;;8.00;93.60;;;;;;5057977;28;19960;-74
2022/11/13 07:12:31;;;;;;;;;;;8.00;93.50;;;;;;5051237;28;20020;-74
2022/11/13 07:14:57;;;;;;;;;;;8.00;93.50;;;;;;5088739;28;20266;-74
2022/11/13 07:17:22;;;;;;;;;;;8.00;93.50;;;;;;5088252;28;19923;-74
2022/11/13 07:19:47;;;;;;;;;;;8.00;93.50;;;;;;5087715;28;20398;-75
2022/11/13 07:22:13;;;;;;;;;;;8.00;93.50;;;;;;5084888;28;19923;-74
2022/11/13 07:24:39;;;;;;;;;;;7.90;93.50;;;;;;5066996;28;19944;-74
2022/11/13 07:27:04;;;;;;;;;;;7.90;93.50;;;;;;5068092;28;19912;-74
2022/11/13 07:29:30;;;;;;;;;;;8.00;93.50;;;;;;5067762;28;19912;-74
2022/11/13 07:31:55;;;;;;;;;;;7.90;93.40;;;;;;5067977;28;19969;-74
2022/11/13 07:34:21;;;;;;;;;;;7.90;93.50;;;;;;5067841;28;20012;-74
2022/11/13 07:36:46;;;;;;;;;;;7.90;93.50;;;;;;5067446;28;19917;-74
2022/11/13 07:39:12;;;;;;;;;;;7.90;93.40;;;;;;5069109;28;19962;-74
2022/11/13 07:41:37;;;;;;;;;;;7.90;93.40;;;;;;5067850;28;19912;-74
2022/11/13 07:44:03;;;;;;;;;;;7.90;93.40;;;;;;5082532;28;19923;-74
2022/11/13 07:46:28;;;;;;;;;;;7.90;93.40;;;;;;5088502;28;19919;-74
2022/11/13 07:48:54;;;;;;;;;;;7.90;93.40;;;;;;5088315;28;19940;-74
2022/11/13 07:51:19;;;;;;;;;;;7.90;93.40;;;;;;5072949;28;19962;-74
2022/11/13 07:53:45;;;;;;;;;;;7.90;93.40;;;;;;5067456;28;19917;-74
2022/11/13 07:56:10;;;;;;;;;;;7.90;93.40;;;;;;5068870;28;19966;-74
2022/11/13 07:58:36;;;;;;;;;;;7.90;93.40;;;;;;5067538;28;19916;-74
2022/11/13 08:01:05;;;;;;;;;;;7.90;93.40;;;;;;5067270;28;20575;-74
2022/11/13 08:03:31;;;;;;;;;;;7.90;93.40;;;;;;5067773;28;20392;-74
2022/11/13 08:06:01;;;;;;;;;;;7.90;93.40;;;;;;5066711;28;19916;-74
2022/11/13 08:08:26;;;;;;;;;;;7.90;93.40;;;;;;5067836;28;20359;-74
2022/11/13 08:10:52;;;;;;;;;;;7.80;93.40;;;;;;5067255;28;19921;-74
2022/11/13 08:13:17;;;;;;;;;;;7.80;93.30;;;;;;5074162;28;19916;-74
2022/11/13 08:15:43;;;;;;;;;;;7.90;93.40;;;;;;5069765;28;19920;-74
2022/11/13 08:18:08;;;;;;;;;;;7.80;93.30;;;;;;5066946;28;19989;-74
2022/11/13 08:20:34;;;;;;;;;;;7.90;93.40;;;;;;5065973;28;20658;-74
2022/11/13 08:23:00;;;;;;;;;;;7.90;93.40;;;;;;5067418;28;20007;-74
2022/11/13 08:25:26;;;;;;;;;;;7.90;93.40;;;;;;5067154;28;19917;-74
2022/11/13 08:27:52;;;;;;;;;;;7.90;93.30;;;;;;5066604;28;19919;-74
2022/11/13 08:30:18;;;;;;;;;;;7.90;93.30;;;;;;5066713;28;19913;-74
2022/11/13 08:32:44;;;;;;;;;;;7.80;93.30;;;;;;5066322;28;19913;-74
2022/11/13 08:35:10;;;;;;;;;;;7.90;93.30;;;;;;5065327;28;19951;-74
2022/11/13 08:37:35;;;;;;;;;;;7.90;93.30;;;;;;5066458;28;19916;-74
2022/11/13 08:40:00;;;;;;;;;;;7.90;93.30;;;;;;5065944;28;19962;-74
2022/11/13 08:42:26;;;;;;;;;;;7.90;93.30;;;;;;5066222;28;19909;-74
2022/11/13 08:44:52;;;;;;;;;;;7.90;93.30;;;;;;5064984;28;20633;-74
2022/11/13 08:47:17;;;;;;;;;;;7.90;93.30;;;;;;5066566;28;19912;-74
2022/11/13 08:49:43;;;;;;;;;;;7.90;93.30;;;;;;5066404;28;19916;-74
2022/11/13 08:52:09;;;;;;;;;;;8.00;93.30;;;;;;5066334;28;19916;-74
2022/11/13 08:54:34;;;;;;;;;;;8.00;93.30;;;;;;5066666;28;19914;-74
2022/11/13 08:57:00;;;;;;;;;;;8.00;93.30;;;;;;5066299;28;19948;-74
2022/11/13 08:59:26;;;;;;;;;;;7.90;93.30;;;;;;5064798;28;20303;-74
2022/11/13 09:01:57;;;;;;;;;;;8.00;93.30;;;;;;5063123;28;19961;-74
2022/11/13 09:04:23;;;;;;;;;;;8.00;93.20;;;;;;5063762;28;19926;-74
2022/11/13 09:06:49;;;;;;;;;;;8.00;93.20;;;;;;5068149;28;19916;-74
2022/11/13 09:09:14;;;;;;;;;;;8.00;93.30;;;;;;5063310;28;20441;-74
2022/11/13 09:11:40;;;;;;;;;;;8.00;93.20;;;;;;5066222;28;19920;-74
2022/11/13 09:14:05;;;;;;;;;;;8.00;93.20;;;;;;5067085;28;20356;-74
2022/11/13 09:16:31;;;;;;;;;;;8.00;93.20;;;;;;5065529;28;19924;-74
2022/11/13 09:18:57;;;;;;;;;;;8.00;93.20;;;;;;5065563;28;19956;-74
2022/11/13 09:21:22;;;;;;;;;;;8.10;93.20;;;;;;5064977;28;19919;-74
2022/11/13 09:23:48;;;;;;;;;;;8.10;93.30;;;;;;5064890;28;21423;-74
2022/11/13 09:26:13;;;;;;;;;;;8.10;93.20;;;;;;5063986;28;20531;-74
2022/11/13 09:28:39;;;;;;;;;;;8.10;93.20;;;;;;5074507;28;19999;-74
2022/11/13 09:31:04;;;;;;;;;;;8.10;93.20;;;;;;5056957;28;19916;-74
2022/11/13 09:33:30;;;;;;;;;;;8.10;93.20;;;;;;5045745;28;20372;-74
2022/11/13 09:35:55;;;;;;;;;;;8.10;93.20;;;;;;5054017;28;19927;-74
2022/11/13 09:38:21;;;;;;;;;;;8.20;93.20;;;;;;5065648;28;20331;-74
2022/11/13 09:40:53;;;;;;;;;;;8.20;93.20;;;;;;5065623;28;19912;-74
2022/11/13 09:43:24;;;;;;;;;;;8.20;93.20;;;;;;5074358;28;20638;-74
2022/11/13 09:45:55;;;;;;;;;;;8.20;93.10;;;;;;5070656;28;19924;-74
2022/11/13 09:48:20;;;;;;;;;;;8.20;93.10;;;;;;5065772;28;19913;-74
2022/11/13 09:50:46;;;;;;;;;;;8.20;93.10;;;;;;5065335;28;19994;-74
2022/11/13 09:53:12;;;;;;;;;;;8.20;93.20;;;;;;5065485;28;19955;-74
2022/11/13 09:55:40;;;;;;;;;;;8.30;93.20;;;;;;5065546;28;19916;-74
2022/11/13 09:58:28;;;;;;;;;;;8.20;93.20;;;;;;5065918;28;19916;-74
2022/11/13 10:00:54;;;;;;;;;;;8.30;93.20;;;;;;5068029;28;20434;-74
2022/11/13 10:03:23;;;;;;;;;;;8.30;93.20;;;;;;5065490;28;19913;-74
2022/11/13 10:06:18;;;;;;;;;;;8.30;93.20;;;;;;5063430;28;19913;-74
2022/11/13 10:08:43;;;;;;;;;;;8.30;93.20;;;;;;5051050;28;19935;-74
2022/11/13 10:11:12;;;;;;;;;;;8.30;93.20;;;;;;5069211;28;19920;-74
2022/11/13 10:13:37;;;;;;;;;;;8.40;93.20;;;;;;5080927;28;19955;-74
2022/11/13 10:16:21;;;;;;;;;;;8.40;93.10;;;;;;5089455;28;20015;-74
2022/11/13 10:18:48;;;;;;;;;;;8.40;93.10;;;;;;5075513;28;20065;-74
2022/11/13 10:21:18;;;;;;;;;;;8.40;93.10;;;;;;5068351;28;20039;-74
2022/11/13 10:23:48;;;;;;;;;;;8.40;93.10;;;;;;5064937;28;19917;-74
2022/11/13 10:26:18;;;;;;;;;;;8.40;93.10;;;;;;5061178;28;19916;-74
2022/11/13 10:28:44;;;;;;;;;;;8.50;93.10;;;;;;5056555;28;19916;-74
2022/11/13 10:31:10;;;;;;;;;;;8.50;93.10;;;;;;5066864;28;19912;-74
2022/11/13 10:33:35;;;;;;;;;;;8.50;93.10;;;;;;5062171;28;19974;-74
2022/11/13 10:36:06;;;;;;;;;;;8.50;93.10;;;;;;5083663;28;20610;-74
2022/11/13 10:38:34;;;;;;;;;;;8.60;93.00;;;;;;5068438;28;19954;-74
2022/11/13 10:41:05;;;;;;;;;;;8.50;93.00;;;;;;5066614;28;19912;-74
2022/11/13 10:43:31;;;;;;;;;;;8.60;93.00;;;;;;5060306;28;20353;-75
2022/11/13 10:45:58;;;;;;;;;;;8.60;93.00;;;;;;5068493;28;19919;-74
2022/11/13 10:48:27;;;;;;;;;;;8.70;93.00;;;;;;5067906;28;20674;-74
2022/11/13 10:50:54;;;;;;;;;;;8.60;93.00;;;;;;5068003;28;20666;-74
2022/11/13 10:53:20;;;;;;;;;;;8.70;93.00;;;;;;5069053;28;19947;-74
2022/11/13 10:55:49;;;;;;;;;;;8.70;93.00;;;;;;5067140;28;20539;-74
2022/11/13 10:58:15;;;;;;;;;;;8.70;93.00;;;;;;5068276;28;19916;-74
2022/11/13 11:00:43;;;;;;;;;;;8.80;93.00;;;;;;5066937;28;19919;-74
2022/11/13 11:03:12;;;;;;;;;;;8.80;92.90;;;;;;5067968;28;19919;-75
2022/11/13 11:05:38;;;;;;;;;;;8.80;92.90;;;;;;5047717;28;19999;-74
2022/11/13 11:08:07;;;;;;;;;;;8.90;92.90;;;;;;5055898;28;20722;-74
2022/11/13 11:10:34;;;;;;;;;;;9.00;92.90;;;;;;5067274;28;20562;-74
2022/11/13 11:13:10;;;;;;;;;;;9.00;92.90;;;;;;5072954;28;20364;-74
2022/11/13 11:15:42;;;;;;;;;;;9.00;92.90;;;;;;5087412;28;19908;-74
2022/11/13 11:18:13;;;;;;;;;;;9.10;92.90;;;;;;5088625;28;20428;-74
2022/11/13 11:20:48;;;;;;;;;;;9.10;92.90;;;;;;5087911;28;19911;-74
2022/11/13 11:23:32;;;;;;;;;;;9.20;92.90;;;;;;5088562;28;19919;-74
2022/11/13 11:25:59;;;;;;;;;;;9.20;92.90;;;;;;5073249;28;20337;-74
2022/11/13 11:28:30;;;;;;;;;;;9.20;92.90;;;;;;5067958;28;19913;-74
2022/11/13 11:31:02;;;;;;;;;;;9.30;93.00;;;;;;5065844;28;19919;-74
2022/11/13 11:33:27;;;;;;;;;;;9.30;93.30;;;;;;5067796;28;19919;-76
2022/11/13 11:35:58;;;;;;;;;;;9.30;93.10;;;;;;5068080;28;19916;-75
2022/11/13 11:38:41;;;;;;;;;;;9.40;93.10;;;;;;5066659;28;19916;-75
2022/11/13 11:41:12;;;;;;;;;;;9.40;93.30;;;;;;5067332;28;19916;-75
2022/11/13 11:43:37;;;;;;;;;;;9.50;93.10;;;;;;5078585;28;19912;-75
2022/11/13 11:46:03;;;;;;;;;;;9.50;93.40;;;;;;5077095;28;20474;-74
2022/11/13 11:48:29;;;;;;;;;;;9.50;93.00;;;;;;5073864;28;19916;-74
2022/11/13 11:51:16;;;;;;;;;;;9.60;93.20;;;;;;5076042;28;19919;-75
2022/11/13 11:53:45;;;;;;;;;;;9.60;93.20;;;;;;5067671;28;19986;-74
2022/11/13 11:56:11;;;;;;;;;;;9.60;93.40;;;;;;5067306;28;19924;-75
2022/11/13 11:58:53;;;;;;;;;;;9.70;93.10;;;;;;5067687;28;20011;-75
2022/11/13 12:01:19;;;;;;;;;;;9.70;93.20;;;;;;5067140;28;19920;-74
2022/11/13 12:04:11;;;;;;;;;;;9.80;93.30;;;;;;5067469;28;19912;-74
2022/11/13 12:06:40;;;;;;;;;;;9.80;93.20;;;;;;5067183;28;19924;-74
2022/11/13 12:09:37;;;;;;;;;;;9.80;93.30;;;;;;5067292;28;19913;-75
2022/11/13 12:12:03;;;;;;;;;;;9.90;93.40;;;;;;5076517;28;19926;-75
2022/11/13 12:14:28;;;;;;;;;;;9.90;93.40;;;;;;5071371;28;19945;-75
2022/11/13 12:17:03;;;;;;;;;;;9.90;93.30;;;;;;5068181;28;19966;-75
2022/11/13 12:19:40;;;;;;;;;;;10.00;93.30;;;;;;5063256;28;19958;-75
2022/11/13 12:22:05;;;;;;;;;;;10.00;93.30;;;;;;5066665;28;20000;-75
2022/11/13 12:24:34;;;;;;;;;;;10.10;93.10;;;;;;5066435;28;20009;-75
2022/11/13 12:27:18;;;;;;;;;;;10.10;93.30;;;;;;5064804;28;19912;-75
2022/11/13 12:30:03;;;;;;;;;;;10.20;93.30;;;;;;5064574;28;19957;-75
2022/11/13 12:32:40;;;;;;;;;;;10.20;93.50;;;;;;5065298;28;19923;-75
2022/11/13 12:35:08;;;;;;;;;;;10.20;93.40;;;;;;5066157;28;19955;-75
2022/11/13 12:37:50;;;;;;;;;;;10.30;93.60;;;;;;5066326;28;19917;-75
2022/11/13 12:40:18;;;;;;;;;;;10.30;93.50;;;;;;5063442;28;19909;-75
2022/11/13 12:43:05;;;;;;;;;;;10.40;93.60;;;;;;5067055;28;20107;-75
2022/11/13 12:45:43;;;;;;;;;;;10.40;93.60;;;;;;5063887;28;19912;-75
2022/11/13 12:48:19;;;;;;;;;;;10.50;93.70;;;;;;5045766;28;19995;-75
2022/11/13 12:50:59;;;;;;;;;;;10.50;93.60;;;;;;5056201;28;19912;-75
2022/11/13 12:53:41;;;;;;;;;;;10.60;93.80;;;;;;5064970;28;20026;-75
2022/11/13 12:56:12;;;;;;;;;;;10.60;93.80;;;;;;5065427;28;19923;-73
2022/11/13 12:58:37;;;;;;;;;;;10.70;94.10;;;;;;5066174;28;19912;-74
2022/11/13 13:01:03;;;;;;;;;;;10.70;94.20;;;;;;5065201;28;20519;-75
2022/11/13 13:03:28;;;;;;;;;;;10.80;94.30;;;;;;5066450;28;19924;-76
2022/11/13 13:06:09;;;;;;;;;;;10.80;94.30;;;;;;5081748;28;19916;-74
2022/11/13 13:08:44;;;;;;;;;;;10.90;94.40;;;;;;5079886;28;19965;-74
2022/11/13 13:11:23;;;;;;;;;;;10.90;94.50;;;;;;5044044;28;20628;-75
2022/11/13 13:13:48;;;;;;;;;;;10.90;94.30;;;;;;5071642;28;19916;-75
2022/11/13 13:16:34;;;;;;;;;;;10.90;94.30;;;;;;5084589;28;19923;-75
2022/11/13 13:19:06;;;;;;;;;;;11.00;94.40;;;;;;5083457;28;21613;-73
2022/11/13 13:21:38;;;;;;;;;;;11.00;94.50;;;;;;5085308;28;19916;-74
2022/11/13 13:24:08;;;;;;;;;;;11.00;94.50;;;;;;5086080;28;19916;-74
2022/11/13 13:26:42;;;;;;;;;;;11.00;94.60;;;;;;5085964;28;19912;-74
2022/11/13 13:29:19;;;;;;;;;;;11.10;94.60;;;;;;5084731;28;19913;-73
2022/11/13 13:31:53;;;;;;;;;;;11.10;94.50;;;;;;5056981;28;19961;-73
2022/11/13 13:34:37;;;;;;;;;;;11.10;94.70;;;;;;5058507;28;20006;-74
2022/11/13 13:37:18;;;;;;;;;;;11.10;94.80;;;;;;5064259;28;19963;-74
2022/11/13 13:39:43;;;;;;;;;;;11.10;95.00;;;;;;5066496;28;19917;-74
2022/11/13 13:42:21;;;;;;;;;;;11.10;94.90;;;;;;5063451;28;19918;-74
2022/11/13 13:44:52;;;;;;;;;;;11.10;95.00;;;;;;5052756;28;19997;-74
2022/11/13 13:47:30;;;;;;;;;;;11.10;94.60;;;;;;5044674;28;19998;-74
2022/11/13 13:49:56;;;;;;;;;;;11.10;94.60;;;;;;5045312;28;19916;-74
2022/11/13 13:52:32;;;;;;;;;;;11.10;94.60;;;;;;5062625;28;19920;-74
2022/11/13 13:54:58;;;;;;;;;;;11.10;94.50;;;;;;5043225;28;19969;-74
2022/11/13 13:57:24;;;;;;;;;;;11.10;94.40;;;;;;5044215;28;19924;-74
2022/11/13 13:59:50;;;;;;;;;;;11.10;94.50;;;;;;5056572;28;19913;-74
2022/11/13 14:02:17;;;;;;;;;;;11.10;94.50;;;;;;5050440;28;19920;-73
2022/11/13 14:04:46;;;;;;;;;;;11.10;94.60;;;;;;5063267;28;19912;-73
2022/11/13 14:07:24;;;;;;;;;;;11.10;94.70;;;;;;5063462;28;19916;-73
2022/11/13 14:10:02;;;;;;;;;;;11.10;94.60;;;;;;5073206;28;19919;-73
2022/11/13 14:12:28;;;;;;;;;;;11.10;94.60;;;;;;5084330;28;19927;-73
2022/11/13 14:14:53;;;;;;;;;;;11.00;94.50;;;;;;5084622;28;19912;-73
2022/11/13 14:17:23;;;;;;;;;;;11.00;94.60;;;;;;5084270;28;20015;-73
2022/11/13 14:19:50;;;;;;;;;;;11.00;94.60;;;;;;5084151;28;20619;-73
2022/11/13 14:22:15;;;;;;;;;;;11.00;94.50;;;;;;5083162;28;19920;-74
2022/11/13 14:24:50;;;;;;;;;;;11.00;94.50;;;;;;5064282;28;19919;-73
2022/11/13 14:27:21;;;;;;;;;;;11.00;94.50;;;;;;5055220;28;19920;-74
2022/11/13 14:29:48;;;;;;;;;;;11.00;94.50;;;;;;5064026;28;19916;-73
2022/11/13 14:32:21;;;;;;;;;;;10.90;94.50;;;;;;5064373;28;19913;-73
2022/11/13 14:34:48;;;;;;;;;;;10.90;94.50;;;;;;5064658;28;20034;-73